Terminal Aerodrome Forecast
Issued by NWS

Home | Current Version | Previous Version | Text Only | Print | Product List | Glossary On
Versions: 1 2 3 4 5 6 7 8 9 10 11 12 13 14 15 16
000
FTAK31 PAJN 021700
TAFASI
TAF
PASI 021722Z 0218/0318 VRB03KT P6SM SCT060 BKN150
     FM022100 13004KT P6SM BKN050 BKN100
     FM030600 12004KT P6SM SCT025 OVC050
     FM031300 12005KT P6SM VCSH SCT025 OVC045
     FM031700 12005KT P6SM -SHRA SCT025 OVC040=

USA.gov is the U.S. government's official web portal to all federal, state and local government web resources and services.